createdAt,value
2018-03-26T00:01:42.140Z,5.90
2018-03-26T00:04:08.371Z,5.90
2018-03-26T00:06:34.697Z,5.90
2018-03-26T00:09:00.946Z,5.80
2018-03-26T00:11:27.920Z,5.80
2018-03-26T00:13:54.127Z,5.70
2018-03-26T00:16:21.100Z,5.70
2018-03-26T00:18:47.297Z,5.60
2018-03-26T00:21:13.525Z,5.60
2018-03-26T00:23:39.815Z,5.60
2018-03-26T00:26:06.055Z,5.60
2018-03-26T00:28:32.303Z,5.50
2018-03-26T00:30:59.286Z,5.40
2018-03-26T00:33:25.541Z,5.40
2018-03-26T00:35:51.790Z,5.50
2018-03-26T00:38:18.014Z,5.50
2018-03-26T00:40:44.208Z,5.50
2018-03-26T00:43:10.429Z,5.50
2018-03-26T00:45:36.704Z,5.50
2018-03-26T00:48:02.951Z,5.50
2018-03-26T00:50:29.120Z,5.50
2018-03-26T00:52:55.382Z,5.50
2018-03-26T00:55:21.577Z,5.50
2018-03-26T00:57:47.813Z,5.40
2018-03-26T01:00:14.037Z,5.40
2018-03-26T01:02:40.207Z,5.50
2018-03-26T01:05:06.463Z,5.50
2018-03-26T01:07:32.686Z,5.40
2018-03-26T01:09:58.875Z,5.30
2018-03-26T01:12:25.913Z,5.10
2018-03-26T01:14:52.877Z,5.10
2018-03-26T01:17:19.040Z,5.10
2018-03-26T01:19:45.307Z,5.10
2018-03-26T01:22:11.528Z,5.00
2018-03-26T01:24:37.826Z,5.00
2018-03-26T01:27:04.020Z,5.00
2018-03-26T01:29:30.213Z,5.10
2018-03-26T01:31:56.451Z,5.10
2018-03-26T01:34:22.676Z,5.10
2018-03-26T01:36:48.909Z,4.90
2018-03-26T01:39:15.130Z,4.90
2018-03-26T01:41:41.407Z,5.00
2018-03-26T01:44:08.357Z,4.90
2018-03-26T01:46:34.589Z,4.90
2018-03-26T01:49:00.821Z,4.90
2018-03-26T01:51:27.788Z,4.60
2018-03-26T01:53:54.011Z,4.60
2018-03-26T01:56:20.266Z,4.50
2018-03-26T01:58:46.505Z,4.50
2018-03-26T02:01:12.683Z,4.20
2018-03-26T02:03:38.920Z,4.00
2018-03-26T02:06:05.115Z,3.80
2018-03-26T02:08:32.069Z,3.70
2018-03-26T02:10:58.309Z,3.60
2018-03-26T02:13:24.537Z,3.70
2018-03-26T02:15:50.791Z,3.80
2018-03-26T02:18:17.065Z,3.80
2018-03-26T02:20:43.268Z,3.80
2018-03-26T02:23:09.514Z,3.80
2018-03-26T02:25:35.725Z,3.90
2018-03-26T02:28:01.958Z,4.10
2018-03-26T02:30:28.184Z,4.10
2018-03-26T02:32:54.401Z,4.20
2018-03-26T02:35:20.662Z,4.20
2018-03-26T02:37:47.602Z,4.30
2018-03-26T02:40:14.561Z,4.30
2018-03-26T02:42:41.538Z,4.40
2018-03-26T02:45:07.813Z,4.30
2018-03-26T02:47:34.071Z,4.50
2018-03-26T02:50:00.306Z,4.60
2018-03-26T02:52:26.548Z,4.70
2018-03-26T02:54:52.759Z,4.90
2018-03-26T02:57:18.982Z,5.00
2018-03-26T02:59:45.200Z,5.00
2018-03-26T03:02:12.177Z,5.20
2018-03-26T03:04:38.457Z,5.20
2018-03-26T03:07:07.427Z,5.30
2018-03-26T03:09:33.652Z,5.30
2018-03-26T03:11:59.852Z,5.40
2018-03-26T03:14:26.091Z,5.40
2018-03-26T03:16:52.318Z,5.40
2018-03-26T03:19:18.549Z,5.40
2018-03-26T03:21:44.806Z,5.40
2018-03-26T03:24:11.091Z,5.50
2018-03-26T03:26:37.309Z,5.50
2018-03-26T03:29:04.334Z,5.50
2018-03-26T03:31:31.294Z,5.60
2018-03-26T03:33:57.513Z,5.50
2018-03-26T03:36:24.520Z,5.60
2018-03-26T03:38:50.767Z,5.60
2018-03-26T03:41:17.013Z,5.70
2018-03-26T03:43:43.253Z,5.70
2018-03-26T03:46:09.538Z,5.70
2018-03-26T03:48:35.769Z,5.70
2018-03-26T03:51:02.053Z,5.70
2018-03-26T03:53:29.381Z,5.70
2018-03-26T03:55:56.349Z,5.70
2018-03-26T03:58:22.568Z,5.70
2018-03-26T04:00:48.796Z,5.70
2018-03-26T04:03:15.012Z,5.60
2018-03-26T04:05:41.973Z,5.70
2018-03-26T04:08:08.292Z,5.70
2018-03-26T04:10:35.272Z,5.70
2018-03-26T04:13:01.500Z,5.60
2018-03-26T04:15:27.773Z,5.70
2018-03-26T04:17:54.025Z,5.70
2018-03-26T04:20:20.995Z,5.70
2018-03-26T04:22:47.221Z,5.70
2018-03-26T04:25:13.413Z,5.70
2018-03-26T04:27:40.353Z,5.80
2018-03-26T04:30:07.368Z,5.80
2018-03-26T04:32:33.589Z,5.80
2018-03-26T04:34:59.887Z,5.80
2018-03-26T04:37:26.078Z,5.90
2018-03-26T04:39:53.039Z,5.90
2018-03-26T04:42:19.989Z,5.90
2018-03-26T04:44:46.960Z,5.90
2018-03-26T04:47:13.198Z,5.90
2018-03-26T04:49:39.437Z,5.90
2018-03-26T04:52:05.665Z,5.90
2018-03-26T04:54:31.898Z,5.90
2018-03-26T04:56:58.103Z,5.90
2018-03-26T04:59:24.296Z,5.90
2018-03-26T05:01:51.221Z,5.90
2018-03-26T05:04:17.421Z,5.90
2018-03-26T05:06:43.660Z,5.90
2018-03-26T05:09:09.846Z,5.90
2018-03-26T05:11:36.127Z,5.90
2018-03-26T05:14:02.387Z,5.80
2018-03-26T05:16:28.598Z,5.80
2018-03-26T05:18:55.607Z,5.80
2018-03-26T05:21:21.813Z,5.80
2018-03-26T05:23:48.088Z,5.80
2018-03-26T05:26:14.269Z,5.80
2018-03-26T05:28:40.492Z,5.80
2018-03-26T05:31:07.029Z,5.80
2018-03-26T05:33:33.285Z,5.80
2018-03-26T05:35:59.509Z,5.80
2018-03-26T05:38:25.703Z,5.70
2018-03-26T05:40:51.922Z,5.70
2018-03-26T05:43:18.149Z,5.70
2018-03-26T05:45:45.133Z,5.70
2018-03-26T05:48:11.354Z,5.60
2018-03-26T05:50:37.600Z,5.60
2018-03-26T05:53:03.830Z,5.60
2018-03-26T05:55:30.094Z,5.70
2018-03-26T05:57:57.112Z,5.80
2018-03-26T06:00:23.346Z,5.80
2018-03-26T06:02:49.598Z,6.00
2018-03-26T06:05:16.560Z,6.00
2018-03-26T06:07:42.756Z,6.00
2018-03-26T06:10:09.096Z,6.00
2018-03-26T06:12:35.360Z,5.90
2018-03-26T06:15:01.521Z,5.80
2018-03-26T06:17:27.811Z,5.80
2018-03-26T06:19:54.086Z,5.80
2018-03-26T06:22:20.355Z,5.80
2018-03-26T06:24:46.665Z,5.80
2018-03-26T06:27:12.942Z,5.60
2018-03-26T06:29:39.209Z,5.60
2018-03-26T06:32:05.460Z,5.60
2018-03-26T06:34:31.712Z,5.50
2018-03-26T06:40:09.489Z,5.50
2018-03-26T06:42:35.668Z,5.50
2018-03-26T06:45:01.917Z,5.60
2018-03-26T06:47:28.099Z,5.60
2018-03-26T06:49:54.347Z,5.70
2018-03-26T06:52:20.585Z,5.80
2018-03-26T06:54:46.800Z,5.80
2018-03-26T06:57:13.002Z,5.90
2018-03-26T06:59:39.987Z,5.90
2018-03-26T07:02:06.200Z,5.90
2018-03-26T07:04:32.427Z,5.90
2018-03-26T07:06:58.680Z,5.90
2018-03-26T07:09:24.937Z,5.80
2018-03-26T07:11:51.169Z,5.90
2018-03-26T07:14:18.149Z,6.00
2018-03-26T07:16:44.437Z,6.00
2018-03-26T07:19:10.669Z,6.10
2018-03-26T07:21:36.962Z,6.10
2018-03-26T07:24:03.219Z,6.20
2018-03-26T07:26:29.441Z,6.30
2018-03-26T07:28:56.797Z,6.30
2018-03-26T07:31:24.346Z,6.40
2018-03-26T07:33:51.279Z,6.50
2018-03-26T07:36:18.982Z,6.50
2018-03-26T07:38:46.057Z,6.50
2018-03-26T07:41:12.392Z,6.50
2018-03-26T07:43:38.588Z,6.50
2018-03-26T07:46:04.784Z,6.50
2018-03-26T07:48:30.996Z,6.50
2018-03-26T07:50:57.202Z,6.60
2018-03-26T07:53:23.416Z,6.50
2018-03-26T07:55:49.721Z,6.60
2018-03-26T07:58:15.965Z,6.60
2018-03-26T08:00:42.252Z,6.70
2018-03-26T08:03:08.465Z,6.70
2018-03-26T08:05:34.700Z,6.70
2018-03-26T08:08:00.954Z,6.70
2018-03-26T08:10:27.193Z,6.70
2018-03-26T08:12:53.405Z,6.70
2018-03-26T08:15:19.623Z,6.80
2018-03-26T08:17:45.836Z,6.80
2018-03-26T08:20:12.084Z,6.80
2018-03-26T08:22:38.353Z,6.90
2018-03-26T08:25:05.365Z,7.00
2018-03-26T08:27:31.587Z,6.90
2018-03-26T08:29:57.797Z,7.10
2018-03-26T08:32:24.064Z,7.00
2018-03-26T08:34:50.330Z,7.10
2018-03-26T08:37:16.644Z,7.10
2018-03-26T08:39:43.711Z,7.10
2018-03-26T08:42:10.742Z,7.20
2018-03-26T08:44:37.952Z,7.10
2018-03-26T08:47:04.196Z,7.20
2018-03-26T08:49:30.461Z,7.20
2018-03-26T08:51:56.750Z,7.20
2018-03-26T08:54:23.017Z,7.20
2018-03-26T08:56:49.984Z,7.30
2018-03-26T08:59:16.195Z,7.30
2018-03-26T09:01:42.355Z,7.30
2018-03-26T09:04:08.558Z,7.30
2018-03-26T09:06:34.771Z,7.30
2018-03-26T09:09:01.021Z,7.30
2018-03-26T09:11:27.271Z,7.30
2018-03-26T09:13:54.564Z,7.40
2018-03-26T09:16:20.817Z,7.40
2018-03-26T09:18:47.823Z,7.40
2018-03-26T09:21:14.091Z,7.40
2018-03-26T09:23:41.101Z,7.40
2018-03-26T09:26:07.410Z,7.40
2018-03-26T09:28:33.642Z,7.50
2018-03-26T09:30:59.848Z,7.50
2018-03-26T09:33:26.049Z,7.50
2018-03-26T09:35:52.305Z,7.50
2018-03-26T09:38:18.544Z,7.60
2018-03-26T09:40:44.776Z,7.60
2018-03-26T09:43:10.972Z,7.70
2018-03-26T09:45:37.212Z,7.70
2018-03-26T09:48:04.200Z,7.80
2018-03-26T09:50:30.417Z,7.80
2018-03-26T09:52:56.662Z,7.80
2018-03-26T09:55:22.910Z,7.80
2018-03-26T09:57:49.902Z,7.90
2018-03-26T10:00:16.141Z,7.90
2018-03-26T10:02:42.414Z,7.90
2018-03-26T10:05:09.393Z,8.00
2018-03-26T10:07:35.599Z,7.90
2018-03-26T10:10:01.874Z,8.00
2018-03-26T10:12:33.639Z,8.00
2018-03-26T10:14:59.870Z,8.00
2018-03-26T10:17:26.136Z,8.10
2018-03-26T10:19:53.144Z,8.10
2018-03-26T10:22:19.345Z,8.00
2018-03-26T10:24:45.542Z,8.10
2018-03-26T10:27:12.556Z,8.10
2018-03-26T10:29:38.816Z,8.10
2018-03-26T10:32:05.064Z,8.10
2018-03-26T10:34:31.241Z,8.20
2018-03-26T10:37:00.644Z,8.20
2018-03-26T10:39:26.861Z,8.20
2018-03-26T10:41:53.082Z,8.20
2018-03-26T10:44:19.335Z,8.20
2018-03-26T10:46:45.576Z,8.30
2018-03-26T10:49:12.544Z,8.30
2018-03-26T10:51:38.764Z,8.20
2018-03-26T10:54:04.985Z,8.30
2018-03-26T10:56:31.938Z,8.30
2018-03-26T10:58:58.212Z,8.30
2018-03-26T11:01:24.460Z,8.40
2018-03-26T11:03:50.665Z,8.40
2018-03-26T11:06:16.904Z,8.40
2018-03-26T11:08:43.121Z,8.40
2018-03-26T11:11:09.414Z,8.50
2018-03-26T11:13:36.366Z,8.50
2018-03-26T11:16:02.669Z,8.40
2018-03-26T11:18:29.602Z,8.50
2018-03-26T11:20:55.844Z,8.50
2018-03-26T11:23:22.782Z,8.60
2018-03-26T11:25:48.980Z,8.50
2018-03-26T11:28:15.243Z,8.60
2018-03-26T11:30:42.186Z,8.70
2018-03-26T11:33:09.136Z,8.60
2018-03-26T11:35:35.425Z,8.60
2018-03-26T11:38:01.660Z,8.80
2018-03-26T11:40:27.900Z,8.70
2018-03-26T11:42:54.065Z,8.70
2018-03-26T11:45:20.301Z,8.80
2018-03-26T11:47:47.592Z,8.80
2018-03-26T11:50:13.830Z,8.90
2018-03-26T11:52:40.068Z,8.90
2018-03-26T11:55:06.263Z,8.90
2018-03-26T11:57:32.498Z,9.00
2018-03-26T11:59:58.735Z,9.00
2018-03-26T12:02:24.985Z,9.00
2018-03-26T12:04:51.234Z,9.00
2018-03-26T12:07:17.482Z,9.00
2018-03-26T12:09:43.662Z,9.00
2018-03-26T12:12:09.862Z,9.10
2018-03-26T12:14:36.124Z,9.10
2018-03-26T12:17:02.406Z,9.10
2018-03-26T12:19:28.649Z,9.10
2018-03-26T12:21:54.854Z,9.20
2018-03-26T12:24:33.316Z,9.20
2018-03-26T12:26:59.566Z,9.20
2018-03-26T12:29:38.761Z,9.30
2018-03-26T12:32:05.018Z,9.30
2018-03-26T12:34:43.324Z,9.40
2018-03-26T12:37:09.566Z,9.40
2018-03-26T12:39:36.523Z,9.50
2018-03-26T12:42:02.772Z,9.50
2018-03-26T12:44:41.241Z,9.60
2018-03-26T12:47:07.488Z,9.60
2018-03-26T12:49:34.510Z,9.60
2018-03-26T12:52:13.072Z,9.60
2018-03-26T12:54:40.423Z,9.70
2018-03-26T12:57:18.861Z,9.70
2018-03-26T12:59:45.088Z,9.80
2018-03-26T13:02:35.259Z,9.80
2018-03-26T13:05:01.466Z,9.90
2018-03-26T13:07:34.105Z,10.00
2018-03-26T13:10:00.310Z,9.90
2018-03-26T13:12:26.588Z,10.00
2018-03-26T13:14:53.598Z,10.20
2018-03-26T13:17:19.891Z,10.20
2018-03-26T13:19:47.158Z,10.30
2018-03-26T13:22:13.413Z,10.30
2018-03-26T13:24:39.636Z,10.30
2018-03-26T13:27:05.845Z,10.40
2018-03-26T13:29:32.042Z,10.50
2018-03-26T13:31:58.984Z,10.60
2018-03-26T13:34:25.999Z,10.90
2018-03-26T13:36:52.196Z,10.80
2018-03-26T13:39:18.449Z,10.90
2018-03-26T13:41:44.685Z,10.90
2018-03-26T13:44:10.872Z,10.90
2018-03-26T13:46:38.200Z,10.90
2018-03-26T13:49:04.478Z,11.20
2018-03-26T13:51:30.768Z,11.30
2018-03-26T13:53:57.006Z,11.20
2018-03-26T13:56:23.205Z,11.20
2018-03-26T13:58:50.212Z,11.70
2018-03-26T14:01:16.432Z,11.60
2018-03-26T14:03:42.660Z,11.70
2018-03-26T14:06:11.012Z,11.60
2018-03-26T14:08:49.558Z,11.60
2018-03-26T14:11:27.943Z,11.60
2018-03-26T14:14:06.459Z,11.60
2018-03-26T14:19:37.670Z,11.50
2018-03-26T14:22:03.928Z,11.40
2018-03-26T14:24:30.968Z,11.30
2018-03-26T14:26:57.913Z,11.30
2018-03-26T14:29:24.893Z,11.30
2018-03-26T14:31:51.231Z,11.20
2018-03-26T14:34:17.472Z,11.20
2018-03-26T14:36:43.653Z,11.30
2018-03-26T14:39:10.618Z,11.30
2018-03-26T14:41:36.848Z,11.20
2018-03-26T14:44:03.156Z,11.30
2018-03-26T14:46:29.416Z,11.20
2018-03-26T14:48:55.659Z,11.20
2018-03-26T14:51:21.861Z,11.20
2018-03-26T14:53:48.104Z,11.20
2018-03-26T14:56:14.380Z,11.20
2018-03-26T14:58:45.884Z,11.10
2018-03-26T15:01:12.083Z,11.10
2018-03-26T15:03:38.309Z,11.10
2018-03-26T15:06:04.520Z,11.10
2018-03-26T15:08:30.840Z,11.10
2018-03-26T15:10:57.074Z,11.10
2018-03-26T15:13:23.364Z,11.20
2018-03-26T15:15:49.576Z,11.20
2018-03-26T15:18:15.742Z,11.30
2018-03-26T15:20:41.957Z,11.30
2018-03-26T15:23:08.185Z,11.30
2018-03-26T15:25:34.426Z,11.30
2018-03-26T15:28:00.677Z,11.30
2018-03-26T15:30:26.955Z,11.20
2018-03-26T15:32:53.166Z,11.20
2018-03-26T15:35:19.428Z,11.20
2018-03-26T15:37:45.627Z,11.20
2018-03-26T15:40:11.884Z,11.20
2018-03-26T15:42:38.089Z,11.30
2018-03-26T15:45:04.313Z,11.30
2018-03-26T15:47:30.532Z,11.40
2018-03-26T15:49:56.742Z,11.40
2018-03-26T15:52:22.984Z,11.40
2018-03-26T15:54:49.242Z,11.40
2018-03-26T15:57:15.501Z,11.40
2018-03-26T15:59:41.698Z,11.50
2018-03-26T16:02:07.869Z,11.50
2018-03-26T16:04:34.800Z,11.50
2018-03-26T16:07:01.041Z,11.50
2018-03-26T16:09:27.228Z,11.50
2018-03-26T16:11:53.438Z,11.60
2018-03-26T16:14:19.666Z,11.60
2018-03-26T16:16:45.932Z,11.60
2018-03-26T16:19:12.154Z,11.50
2018-03-26T16:21:38.385Z,11.60
2018-03-26T16:24:04.586Z,11.60
2018-03-26T16:26:30.781Z,11.50
2018-03-26T16:28:57.018Z,11.50
2018-03-26T16:31:23.266Z,11.50
2018-03-26T16:33:49.501Z,11.50
2018-03-26T16:36:15.722Z,11.50
2018-03-26T16:38:41.933Z,11.50
2018-03-26T16:41:08.172Z,11.40
2018-03-26T16:43:34.420Z,11.40
2018-03-26T16:46:00.583Z,11.40
2018-03-26T16:48:27.492Z,11.30
2018-03-26T16:50:53.718Z,11.30
2018-03-26T16:53:19.960Z,11.30
2018-03-26T16:55:46.176Z,11.20
2018-03-26T16:58:12.442Z,11.20
2018-03-26T17:00:38.766Z,11.20
2018-03-26T17:03:05.728Z,11.20
2018-03-26T17:05:32.702Z,11.20
2018-03-26T17:07:58.904Z,11.20
2018-03-26T17:10:25.096Z,11.20
2018-03-26T17:12:51.287Z,11.20
2018-03-26T17:15:17.528Z,11.10
2018-03-26T17:17:43.762Z,11.10
2018-03-26T17:20:10.006Z,11.10
2018-03-26T17:22:36.227Z,11.00
2018-03-26T17:25:02.453Z,11.00
2018-03-26T17:27:28.684Z,11.00
2018-03-26T17:29:54.888Z,11.00
2018-03-26T17:32:21.090Z,11.00
2018-03-26T17:34:47.277Z,11.10
2018-03-26T17:37:13.488Z,11.00
2018-03-26T17:39:39.683Z,11.00
2018-03-26T17:42:05.968Z,11.00
2018-03-26T17:44:32.160Z,11.00
2018-03-26T17:46:58.374Z,11.00
2018-03-26T17:49:24.625Z,11.10
2018-03-26T17:51:50.857Z,11.00
2018-03-26T17:54:17.064Z,11.00
2018-03-26T17:56:43.265Z,11.00
2018-03-26T17:59:09.428Z,11.00
2018-03-26T18:01:35.676Z,11.00
2018-03-26T18:04:01.904Z,11.00
2018-03-26T18:06:28.107Z,10.90
2018-03-26T18:08:54.272Z,10.90
2018-03-26T18:11:20.514Z,10.90
2018-03-26T18:13:47.497Z,10.90
2018-03-26T18:16:13.712Z,10.90
2018-03-26T18:18:39.958Z,10.90
2018-03-26T18:21:06.371Z,10.90
2018-03-26T18:26:31.233Z,10.80
2018-03-26T18:28:57.469Z,10.80
2018-03-26T18:31:25.741Z,10.80
2018-03-26T18:33:51.952Z,10.80
2018-03-26T18:36:18.202Z,10.70
2018-03-26T18:38:44.413Z,10.70
2018-03-26T18:41:10.680Z,10.70
2018-03-26T18:43:37.620Z,10.70
2018-03-26T18:46:15.194Z,10.80
2018-03-26T18:48:41.380Z,10.70
2018-03-26T18:51:07.584Z,10.70
2018-03-26T18:53:34.549Z,10.60
2018-03-26T18:56:00.757Z,10.50
2018-03-26T18:58:32.949Z,10.40
2018-03-26T19:00:59.160Z,10.40
2018-03-26T19:03:51.002Z,10.30
2018-03-26T19:06:17.212Z,10.20
2018-03-26T19:08:44.215Z,10.20
2018-03-26T19:11:36.899Z,10.20
2018-03-26T19:14:03.905Z,10.10
2018-03-26T19:16:30.397Z,10.00
2018-03-26T19:18:56.619Z,10.00
2018-03-26T19:21:49.070Z,10.00
2018-03-26T19:24:15.289Z,9.90
2018-03-26T19:26:41.668Z,9.90
2018-03-26T19:29:07.900Z,9.80
2018-03-26T19:31:34.096Z,9.80
2018-03-26T19:34:01.417Z,9.70
2018-03-26T19:36:28.413Z,9.70
2018-03-26T19:38:54.619Z,9.60
2018-03-26T19:41:20.913Z,9.70
2018-03-26T19:43:47.845Z,9.70
2018-03-26T19:46:14.076Z,9.60
2018-03-26T19:48:40.320Z,9.70
2018-03-26T19:51:07.252Z,9.70
2018-03-26T19:53:33.489Z,9.70
2018-03-26T19:56:00.419Z,9.70
2018-03-26T19:58:26.722Z,9.70
2018-03-26T20:00:52.899Z,9.70
2018-03-26T20:03:30.970Z,9.50
2018-03-26T20:05:57.222Z,9.50
2018-03-26T20:08:23.477Z,9.50
2018-03-26T20:10:49.663Z,9.40
2018-03-26T20:13:15.882Z,9.30
2018-03-26T20:15:42.129Z,9.30
2018-03-26T20:18:10.406Z,9.20
2018-03-26T20:20:37.364Z,9.20
2018-03-26T20:23:04.363Z,9.30
2018-03-26T20:25:33.881Z,9.20
2018-03-26T20:28:00.103Z,9.30
2018-03-26T20:30:26.326Z,9.40
2018-03-26T20:32:52.554Z,9.30
2018-03-26T20:35:18.816Z,9.40
2018-03-26T20:37:45.038Z,9.40
2018-03-26T20:40:11.299Z,9.40
2018-03-26T20:42:37.466Z,9.40
2018-03-26T20:45:03.738Z,9.40
2018-03-26T20:47:30.693Z,9.50
2018-03-26T20:49:57.646Z,9.50
2018-03-26T20:52:42.852Z,9.40
2018-03-26T20:55:27.387Z,9.40
2018-03-26T20:57:57.112Z,9.40
2018-03-26T21:00:33.669Z,9.30
2018-03-26T21:03:00.627Z,9.20
2018-03-26T21:05:26.833Z,9.10
2018-03-26T21:07:53.051Z,9.20
2018-03-26T21:10:24.966Z,9.20
2018-03-26T21:12:51.168Z,9.30
2018-03-26T21:15:17.437Z,9.30
2018-03-26T21:17:43.678Z,9.30
2018-03-26T21:20:10.616Z,9.30
2018-03-26T21:22:36.809Z,9.30
2018-03-26T21:25:03.072Z,9.30
2018-03-26T21:27:29.281Z,9.30
2018-03-26T21:29:56.524Z,9.30
2018-03-26T21:32:22.740Z,9.30
2018-03-26T21:34:48.953Z,9.30
2018-03-26T21:37:15.217Z,9.30
2018-03-26T21:39:41.461Z,9.30
2018-03-26T21:42:08.489Z,9.30
2018-03-26T21:44:34.718Z,9.30
2018-03-26T21:47:00.918Z,9.30
2018-03-26T21:49:27.209Z,9.30
2018-03-26T21:51:54.251Z,9.20
2018-03-26T21:54:20.525Z,9.20
2018-03-26T21:56:46.701Z,9.30
2018-03-26T21:59:12.857Z,9.20
2018-03-26T22:01:39.105Z,9.10
2018-03-26T22:04:05.359Z,9.00
2018-03-26T22:06:31.595Z,8.90
2018-03-26T22:08:57.917Z,8.80
2018-03-26T22:11:24.156Z,8.80
2018-03-26T22:13:51.217Z,8.90
2018-03-26T22:16:17.451Z,8.80
2018-03-26T22:18:43.727Z,8.80
2018-03-26T22:21:10.006Z,8.80
2018-03-26T22:23:36.290Z,8.80
2018-03-26T22:26:02.582Z,8.80
2018-03-26T22:28:29.894Z,8.80
2018-03-26T22:30:56.154Z,8.80
2018-03-26T22:33:23.172Z,8.90
2018-03-26T22:35:49.445Z,8.80
2018-03-26T22:38:15.772Z,8.90
2018-03-26T22:40:41.978Z,8.90
2018-03-26T22:43:08.204Z,8.90
2018-03-26T22:45:34.436Z,8.90
2018-03-26T22:48:00.652Z,8.90
2018-03-26T22:50:26.866Z,8.90
2018-03-26T22:52:53.127Z,8.90
2018-03-26T22:55:20.112Z,8.90
2018-03-26T22:57:46.292Z,8.90
2018-03-26T23:00:13.341Z,8.90
2018-03-26T23:02:39.562Z,8.80
2018-03-26T23:05:05.733Z,8.90
2018-03-26T23:07:31.982Z,8.90
2018-03-26T23:09:58.194Z,8.90
2018-03-26T23:12:24.426Z,8.80
2018-03-26T23:14:50.669Z,8.80
2018-03-26T23:17:16.869Z,8.80
2018-03-26T23:19:43.095Z,8.70
2018-03-26T23:22:10.914Z,8.70
2018-03-26T23:24:38.148Z,8.60
2018-03-26T23:27:04.363Z,8.50
2018-03-26T23:29:30.606Z,8.50
2018-03-26T23:31:56.777Z,8.50
2018-03-26T23:34:23.846Z,8.30
2018-03-26T23:36:50.080Z,8.30
2018-03-26T23:39:16.319Z,8.30
2018-03-26T23:41:42.544Z,8.20
2018-03-26T23:44:08.807Z,8.20
2018-03-26T23:46:35.058Z,8.20
2018-03-26T23:49:02.013Z,8.30
2018-03-26T23:51:28.239Z,8.20
2018-03-26T23:53:55.233Z,8.40
2018-03-26T23:56:21.445Z,8.30
2018-03-26T23:58:47.688Z,8.40
